Time;durP1;ratioP1;P1;durP2;ratioP2;P2;SDS_P1;SDS_P2;PMS_P1;PMS_P2;Temp;Humidity;BMP_temperature;BMP_pressure;BME280_temperature;BME280_humidity;BME280_pressure;Samples;Min_cycle;Max_cycle;Signal;HPM_P1;HPM_P2
2023/08/06 00:00:06;;;;;;;4.70;3.67;;;;;;;16.41;97.00;100119.00;3613435;39;20063;-68
2023/08/06 00:02:31;;;;;;;3.65;3.22;;;;;;;16.40;97.57;100119.16;3614717;39;20050;-68
2023/08/06 00:04:57;;;;;;;3.75;3.35;;;;;;;16.38;97.58;100113.88;3614426;39;20436;-68
2023/08/06 00:07:22;;;;;;;4.47;3.08;;;;;;;16.40;97.53;100119.16;3614934;39;20051;-67
2023/08/06 00:09:48;;;;;;;4.05;3.30;;;;;;;16.41;97.15;100118.16;3615833;39;20063;-67
2023/08/06 00:12:14;;;;;;;4.25;3.45;;;;;;;16.43;96.93;100122.44;3615120;39;20058;-69
2023/08/06 00:14:39;;;;;;;4.35;3.25;;;;;;;16.42;96.60;100117.97;3613181;39;20062;-69
2023/08/06 00:17:05;;;;;;;5.22;3.13;;;;;;;16.42;96.81;100115.28;3614738;39;20164;-67
2023/08/06 00:19:32;;;;;;;4.32;3.10;;;;;;;16.43;97.26;100108.88;3615864;39;20080;-67
2023/08/06 00:21:57;;;;;;;3.53;2.88;;;;;;;16.45;96.73;100108.69;3614844;39;20070;-67
2023/08/06 00:24:23;;;;;;;3.88;3.10;;;;;;;16.44;97.26;100102.44;3612978;39;20278;-67
2023/08/06 00:26:49;;;;;;;3.33;2.80;;;;;;;16.47;97.53;100107.56;3612696;39;20061;-68
2023/08/06 00:29:14;;;;;;;4.93;2.92;;;;;;;16.46;97.46;100100.44;3613652;39;20069;-69
2023/08/06 00:31:40;;;;;;;3.60;2.75;;;;;;;16.46;96.70;100100.44;3614295;39;20055;-68
2023/08/06 00:34:06;;;;;;;4.68;2.60;;;;;;;16.43;96.54;100105.31;3613776;39;20070;-69
2023/08/06 00:36:31;;;;;;;3.40;2.72;;;;;;;16.41;96.54;100105.44;3614977;39;20400;-68
2023/08/06 00:38:57;;;;;;;3.60;2.90;;;;;;;16.43;97.31;100099.88;3613881;39;20062;-67
2023/08/06 00:41:22;;;;;;;5.05;3.10;;;;;;;16.41;97.03;100100.00;3616598;39;20066;-68
2023/08/06 00:43:48;;;;;;;4.40;3.10;;;;;;;16.36;97.33;100101.47;3611660;39;20061;-67
2023/08/06 00:46:14;;;;;;;4.22;3.03;;;;;;;16.37;97.40;100098.59;3613673;39;20054;-67
2023/08/06 00:48:42;;;;;;;6.03;3.00;;;;;;;16.38;97.76;100099.47;3614065;39;20043;-67
2023/08/06 00:51:11;;;;;;;3.22;2.92;;;;;;;16.39;98.60;100099.28;3614678;39;20408;-66
2023/08/06 00:53:39;;;;;;;4.10;2.83;;;;;;;16.38;98.40;100097.59;3614887;39;20461;-67
2023/08/06 00:56:05;;;;;;;3.22;2.90;;;;;;;16.35;98.07;100092.47;3613071;39;20055;-67
2023/08/06 00:58:32;;;;;;;3.53;2.88;;;;;;;16.32;97.70;100103.63;3613620;39;20102;-67
2023/08/06 01:00:57;;;;;;;3.63;2.90;;;;;;;16.30;97.95;100089.38;3618972;39;20119;-67
2023/08/06 01:03:23;;;;;;;2.97;2.78;;;;;;;16.29;98.75;100094.94;3613323;39;20053;-66
2023/08/06 01:05:50;;;;;;;6.00;3.15;;;;;;;16.30;98.83;100091.22;3615498;39;20370;-66
2023/08/06 01:08:42;;;;;;;7.28;3.30;;;;;;;16.29;99.24;100094.94;3616197;39;20051;-68
2023/08/06 01:12:24;;;;;;;6.30;3.08;;;;;;;16.28;99.42;100090.53;3617103;39;20069;-67
2023/08/06 01:15:22;;;;;;;2.97;2.70;;;;;;;16.25;98.76;100092.53;3558790;39;20458;-68
2023/08/06 01:17:48;;;;;;;3.72;2.70;;;;;;;16.27;99.60;100089.66;3615294;39;20411;-68
2023/08/06 01:20:14;;;;;;;3.60;3.00;;;;;;;16.23;98.69;100093.66;3615817;39;20055;-67
2023/08/06 01:22:39;;;;;;;4.75;3.28;;;;;;;16.23;99.07;100088.25;3613215;39;20303;-67
2023/08/06 01:25:07;;;;;;;3.08;2.80;;;;;;;16.22;98.85;100094.69;3616824;39;20053;-67
2023/08/06 01:27:48;;;;;;;3.90;2.83;;;;;;;16.19;99.32;100095.81;3614580;39;20055;-68
2023/08/06 01:30:27;;;;;;;4.22;3.13;;;;;;;16.21;99.47;100095.69;3615551;39;20112;-66
2023/08/06 01:33:00;;;;;;;3.22;2.92;;;;;;;16.21;99.73;100093.81;3613643;39;21909;-67
2023/08/06 01:35:28;;;;;;;4.28;2.92;;;;;;;16.15;100.00;100080.03;3614579;39;20057;-66
2023/08/06 01:37:56;;;;;;;4.88;3.08;;;;;;;16.20;99.94;100083.97;3612591;39;20116;-67
2023/08/06 01:40:22;;;;;;;4.72;3.10;;;;;;;16.22;99.86;100089.25;3620068;39;20042;-66
2023/08/06 01:42:47;;;;;;;5.57;3.10;;;;;;;16.22;100.00;100087.38;3614706;39;20126;-67
2023/08/06 01:45:14;;;;;;;4.25;3.17;;;;;;;16.23;99.08;100085.53;3614232;39;20051;-68
2023/08/06 01:47:39;;;;;;;3.92;3.63;;;;;;;16.23;98.42;100088.25;3614309;39;20061;-68
2023/08/06 01:50:06;;;;;;;4.20;3.20;;;;;;;16.23;98.78;100083.66;3613658;39;20050;-68
2023/08/06 01:52:31;;;;;;;3.20;2.90;;;;;;;16.22;99.05;100087.38;3615340;39;20598;-68
2023/08/06 01:54:57;;;;;;;8.02;5.93;;;;;;;16.21;98.23;100087.56;3615874;39;20343;-66
2023/08/06 01:57:23;;;;;;;5.68;3.85;;;;;;;16.05;99.23;100057.47;3613914;39;20653;-67
2023/08/06 01:59:49;;;;;;;4.15;3.60;;;;;;;16.18;98.66;100085.13;3617734;39;20102;-68
2023/08/06 02:02:14;;;;;;;6.22;4.70;;;;;;;16.17;99.31;100081.56;3613238;39;20050;-68
2023/08/06 02:04:40;;;;;;;5.75;4.95;;;;;;;16.15;99.29;100080.03;3613035;39;20058;-68
2023/08/06 02:07:05;;;;;;;8.13;5.68;;;;;;;16.17;99.50;100083.41;3616269;39;20050;-68
2023/08/06 02:09:31;;;;;;;8.93;4.70;;;;;;;16.17;98.90;100083.41;3613923;39;20412;-67
2023/08/06 02:11:57;;;;;;;3.38;3.05;;;;;;;16.15;99.76;100085.44;3614342;39;20046;-68
2023/08/06 02:14:23;;;;;;;6.22;3.38;;;;;;;16.17;99.81;100094.25;3614274;39;20057;-68
2023/08/06 02:16:49;;;;;;;4.13;3.67;;;;;;;16.17;100.00;100091.53;3614822;39;20535;-68
2023/08/06 02:19:15;;;;;;;6.80;4.38;;;;;;;16.17;100.00;100080.69;3617463;39;20514;-69
2023/08/06 02:21:40;;;;;;;6.07;5.38;;;;;;;16.19;100.00;100089.56;3616978;39;20058;-68
2023/08/06 02:24:06;;;;;;;5.38;3.13;;;;;;;16.21;100.00;100090.28;3618469;39;20054;-68
2023/08/06 02:26:32;;;;;;;5.18;3.50;;;;;;;16.21;99.82;100080.28;3611822;39;20155;-67
2023/08/06 02:28:57;;;;;;;7.80;3.70;;;;;;;16.19;100.00;100090.41;3604577;39;20047;-68
2023/08/06 02:31:23;;;;;;;5.57;4.80;;;;;;;16.23;99.99;100088.25;3604051;39;20058;-67
2023/08/06 02:33:49;;;;;;;4.10;3.15;;;;;;;16.24;100.00;100087.25;3615368;39;20055;-68
2023/08/06 02:36:14;;;;;;;5.25;3.28;;;;;;;16.19;100.00;100070.56;3616787;39;20356;-68
2023/08/06 02:38:40;;;;;;;4.45;3.47;;;;;;;16.28;100.00;100088.66;3613105;39;20072;-67
2023/08/06 02:41:05;;;;;;;3.40;3.10;;;;;;;16.28;100.00;100085.94;3616044;39;20058;-67
2023/08/06 02:43:31;;;;;;;4.38;3.30;;;;;;;16.27;100.00;100084.25;3612979;39;20312;-68
2023/08/06 02:45:59;;;;;;;7.43;3.60;;;;;;;16.29;100.00;100087.66;3612289;39;20044;-68
2023/08/06 02:48:24;;;;;;;8.13;4.75;;;;;;;16.21;100.00;100076.72;3612418;39;20058;-68
2023/08/06 02:50:50;;;;;;;5.30;4.80;;;;;;;16.26;100.00;100077.09;3613409;39;20431;-68
2023/08/06 02:53:16;;;;;;;3.70;3.30;;;;;;;16.22;99.58;100073.84;3613681;39;20063;-68
2023/08/06 02:55:50;;;;;;;4.68;2.78;;;;;;;16.27;99.81;100076.09;3615015;39;20081;-67
2023/08/06 02:58:17;;;;;;;3.08;2.78;;;;;;;16.00;100.00;100028.97;3613412;39;20049;-68
2023/08/06 03:00:44;;;;;;;4.97;3.15;;;;;;;16.28;100.00;100075.09;3617156;39;20376;-68
2023/08/06 03:03:10;;;;;;;6.13;2.63;;;;;;;16.29;100.00;100081.38;3616616;39;20090;-68
2023/08/06 03:05:35;;;;;;;5.47;3.00;;;;;;;16.28;100.00;100074.25;3612037;39;20085;-68
2023/08/06 03:08:01;;;;;;;3.80;2.80;;;;;;;16.27;100.00;100076.09;3612593;39;20124;-68
2023/08/06 03:10:27;;;;;;;6.18;4.30;;;;;;;16.28;100.00;100074.25;3613407;39;20324;-68
2023/08/06 03:12:52;;;;;;;5.35;3.28;;;;;;;16.31;100.00;100073.94;3613884;39;20085;-68
2023/08/06 03:15:18;;;;;;;7.55;2.88;;;;;;;16.32;100.00;100076.50;3614477;39;20051;-68
2023/08/06 03:17:44;;;;;;;4.43;3.25;;;;;;;16.31;100.00;100069.38;3616851;39;20070;-68
2023/08/06 03:20:10;;;;;;;3.80;2.70;;;;;;;16.32;100.00;100075.66;3619136;39;20034;-68
2023/08/06 03:22:36;;;;;;;3.80;2.90;;;;;;;16.30;100.00;100070.38;3613982;39;20116;-68
2023/08/06 03:25:03;;;;;;;3.65;2.60;;;;;;;16.28;100.00;100085.94;3611836;39;20055;-67
2023/08/06 03:27:28;;;;;;;5.20;2.85;;;;;;;16.29;100.00;100079.50;3614735;39;20063;-68
2023/08/06 03:29:54;;;;;;;6.75;3.25;;;;;;;16.29;100.00;100079.50;3614132;39;20282;-68
2023/08/06 03:32:20;;;;;;;4.65;2.92;;;;;;;16.30;100.00;100073.09;3618414;39;20515;-68
2023/08/06 03:34:45;;;;;;;3.72;3.13;;;;;;;16.28;100.00;100075.09;3615590;39;20329;-68
2023/08/06 03:37:11;;;;;;;4.25;3.08;;;;;;;16.30;100.00;100083.94;3619318;39;20065;-68
2023/08/06 03:39:37;;;;;;;5.07;3.10;;;;;;;16.31;100.00;100082.94;3615246;39;20398;-68
2023/08/06 03:42:03;;;;;;;5.55;2.70;;;;;;;16.31;100.00;100077.50;3621034;39;20061;-68
2023/08/06 03:44:28;;;;;;;4.68;3.08;;;;;;;16.33;100.00;100085.47;3618813;39;20325;-68
2023/08/06 03:46:54;;;;;;;5.68;3.65;;;;;;;16.30;100.00;100081.25;3616112;39;20077;-68
2023/08/06 03:49:19;;;;;;;4.97;3.42;;;;;;;16.29;100.00;100087.66;3606402;39;20107;-68
2023/08/06 03:51:45;;;;;;;3.63;3.22;;;;;;;16.29;100.00;100087.66;3613882;39;20054;-67
2023/08/06 03:54:11;;;;;;;5.80;3.50;;;;;;;16.29;100.00;100087.66;3618886;39;20074;-68
2023/08/06 03:56:37;;;;;;;5.72;3.40;;;;;;;16.31;100.00;100090.22;3618163;39;20449;-68
2023/08/06 03:59:02;;;;;;;6.10;3.70;;;;;;;16.30;100.00;100094.78;3615747;39;20060;-68
2023/08/06 04:01:28;;;;;;;4.88;4.20;;;;;;;16.27;100.00;100091.50;3614955;39;20149;-68
2023/08/06 04:03:54;;;;;;;4.93;3.80;;;;;;;16.27;99.77;100089.66;3616604;39;20046;-69
2023/08/06 04:06:19;;;;;;;5.18;3.85;;;;;;;16.25;100.00;100094.38;3619172;39;20066;-68
2023/08/06 04:08:45;;;;;;;6.20;3.95;;;;;;;16.25;100.00;100091.66;3616491;39;20058;-67
2023/08/06 04:11:12;;;;;;;4.40;4.00;;;;;;;16.22;99.90;100098.25;3615824;39;20062;-67
2023/08/06 04:13:37;;;;;;;7.05;4.10;;;;;;;16.23;100.00;100096.38;3614256;39;20069;-67
2023/08/06 04:16:03;;;;;;;5.35;4.00;;;;;;;16.19;100.00;100098.53;3615899;39;20043;-67
2023/08/06 04:18:29;;;;;;;5.00;4.10;;;;;;;16.22;99.59;100102.81;3614390;39;20109;-67
2023/08/06 04:20:57;;;;;;;5.43;4.47;;;;;;;16.22;100.00;100102.81;3617725;39;20095;-67
2023/08/06 04:23:23;;;;;;;6.10;4.85;;;;;;;16.17;100.00;100095.09;3618180;39;20074;-68
2023/08/06 04:25:49;;;;;;;7.65;4.30;;;;;;;16.22;99.52;100108.25;3617887;39;20086;-66
2023/08/06 04:28:14;;;;;;;4.80;3.78;;;;;;;16.22;99.66;100108.25;3621717;39;20054;-69
2023/08/06 04:30:40;;;;;;;4.30;3.88;;;;;;;16.24;100.00;100101.66;3616666;39;20062;-70
2023/08/06 04:33:06;;;;;;;8.30;4.60;;;;;;;16.25;100.00;100103.38;3610486;39;20304;-71
2023/08/06 04:35:31;;;;;;;4.88;4.10;;;;;;;16.18;100.00;100104.97;3612575;39;20058;-70
2023/08/06 04:37:57;;;;;;;4.55;3.90;;;;;;;16.18;100.00;100106.84;3616094;39;20313;-70
2023/08/06 04:40:22;;;;;;;5.05;4.53;;;;;;;16.24;99.84;100114.38;3616771;39;20043;-69
2023/08/06 04:42:48;;;;;;;5.38;4.20;;;;;;;16.25;100.00;100113.38;3616079;39;20054;-69
2023/08/06 04:45:14;;;;;;;7.80;4.32;;;;;;;16.29;100.00;100114.75;3619647;39;20057;-70
2023/08/06 04:47:39;;;;;;;6.15;4.47;;;;;;;16.30;100.00;100119.22;3619347;39;20127;-69
2023/08/06 04:50:06;;;;;;;7.38;4.75;;;;;;;16.29;100.00;100113.91;3619350;39;20047;-69
2023/08/06 04:52:32;;;;;;;5.25;4.35;;;;;;;16.32;100.00;100119.91;3618231;39;20056;-69
2023/08/06 04:54:57;;;;;;;4.75;4.13;;;;;;;16.31;100.00;100118.19;3616681;39;20055;-69
2023/08/06 04:57:23;;;;;;;6.63;4.50;;;;;;;16.37;100.00;100128.44;3619735;39;20119;-69
2023/08/06 04:59:49;;;;;;;10.23;4.72;;;;;;;16.39;100.00;100128.28;3616328;39;21297;-69
2023/08/06 05:02:14;;;;;;;5.40;4.53;;;;;;;16.41;100.00;100129.84;3616481;39;20108;-70
2023/08/06 05:04:40;;;;;;;5.20;4.70;;;;;;;16.45;100.00;100124.97;3616757;39;20328;-69
2023/08/06 05:07:06;;;;;;;6.88;4.65;;;;;;;16.45;99.89;100133.97;3618175;39;20369;-69
2023/08/06 05:09:32;;;;;;;7.00;5.00;;;;;;;16.47;100.00;100134.69;3616603;39;20384;-69
2023/08/06 05:12:00;;;;;;;6.63;4.57;;;;;;;16.46;99.05;100138.41;3616403;39;20058;-69
2023/08/06 05:14:26;;;;;;;5.40;4.70;;;;;;;16.46;99.23;100140.28;3618421;39;20281;-69
2023/08/06 05:16:52;;;;;;;6.03;4.97;;;;;;;16.40;99.35;100128.16;3618947;39;20069;-69
2023/08/06 05:19:17;;;;;;;6.18;4.90;;;;;;;16.51;99.78;100142.53;3617906;39;20062;-69
2023/08/06 05:21:43;;;;;;;6.30;5.38;;;;;;;16.08;99.25;100065.31;3618599;39;20342;-69
2023/08/06 05:24:08;;;;;;;6.43;5.05;;;;;;;16.56;99.86;100143.78;3619028;39;20594;-69
2023/08/06 05:26:34;;;;;;;8.35;5.28;;;;;;;16.58;98.25;100155.31;3616054;39;20050;-68
2023/08/06 05:29:00;;;;;;;5.90;5.30;;;;;;;16.61;98.49;100159.59;3618676;39;20050;-70
2023/08/06 05:31:28;;;;;;;6.55;4.70;;;;;;;16.65;98.21;100158.28;3616390;39;20055;-69
2023/08/06 05:33:54;;;;;;;8.65;4.93;;;;;;;16.47;97.30;100122.97;3613040;39;20058;-69
2023/08/06 05:36:21;;;;;;;5.25;4.55;;;;;;;16.71;97.81;100160.41;3613518;39;20724;-68
2023/08/06 05:38:47;;;;;;;5.10;4.35;;;;;;;16.75;98.71;100159.16;3618912;39;20047;-68
2023/08/06 05:41:13;;;;;;;5.07;4.35;;;;;;;16.76;98.46;100155.41;3615748;39;20071;-68
2023/08/06 05:43:39;;;;;;;7.13;4.88;;;;;;;16.89;99.01;100174.91;3616019;39;20130;-68
2023/08/06 05:46:04;;;;;;;5.28;4.40;;;;;;;16.86;98.13;100160.78;3615862;39;20051;-68
2023/08/06 05:48:31;;;;;;;5.07;4.30;;;;;;;17.03;97.42;100183.53;3606530;39;20054;-67
2023/08/06 05:50:58;;;;;;;4.82;3.70;;;;;;;17.08;97.55;100187.53;3609729;39;20326;-67
2023/08/06 05:53:24;;;;;;;4.20;3.80;;;;;;;17.08;96.30;100178.53;3617010;39;20062;-67
2023/08/06 05:55:50;;;;;;;5.10;4.30;;;;;;;17.13;95.68;100187.06;3615625;39;20058;-66
2023/08/06 05:58:16;;;;;;;6.38;4.22;;;;;;;17.10;95.06;100188.22;3614958;39;20055;-68
2023/08/06 06:00:42;;;;;;;8.02;4.25;;;;;;;17.11;93.77;100197.22;3614865;39;20443;-68
2023/08/06 06:03:08;;;;;;;6.85;4.80;;;;;;;17.10;94.18;100196.38;3619415;39;20050;-68
2023/08/06 06:05:33;;;;;;;7.20;4.88;;;;;;;17.10;94.97;100204.53;3613410;39;20126;-69
2023/08/06 06:07:59;;;;;;;5.40;4.90;;;;;;;17.09;94.93;100208.22;3617600;39;20122;-68
2023/08/06 06:10:25;;;;;;;5.93;4.90;;;;;;;17.11;94.72;100202.66;3615999;39;20111;-69
2023/08/06 06:12:50;;;;;;;5.97;5.18;;;;;;;17.12;95.53;100209.78;3613610;39;20060;-67
2023/08/06 06:15:16;;;;;;;5.30;4.80;;;;;;;17.11;95.44;100211.66;3616021;39;20382;-68
2023/08/06 06:17:42;;;;;;;7.00;4.90;;;;;;;17.08;95.23;100211.13;3614655;39;20693;-67
2023/08/06 06:20:08;;;;;;;5.60;5.10;;;;;;;17.12;96.09;100218.78;3617323;39;20389;-68
2023/08/06 06:22:33;;;;;;;5.57;4.85;;;;;;;17.14;95.45;100224.94;3613327;39;20063;-67
2023/08/06 06:24:59;;;;;;;7.28;5.10;;;;;;;17.13;95.15;100225.09;3613432;39;20405;-68
2023/08/06 06:27:24;;;;;;;9.80;4.88;;;;;;;17.14;94.80;100234.94;3614479;39;20122;-69
2023/08/06 06:29:52;;;;;;;7.28;5.00;;;;;;;17.11;95.49;100240.69;3616980;39;20047;-68
2023/08/06 06:32:18;;;;;;;7.05;4.53;;;;;;;17.08;94.47;100240.97;3615813;39;20062;-67
2023/08/06 06:34:43;;;;;;;5.32;4.00;;;;;;;17.07;95.26;100244.72;3615262;39;20303;-67
2023/08/06 06:37:09;;;;;;;4.45;4.05;;;;;;;17.02;95.76;100249.72;3620107;39;20078;-67
2023/08/06 06:39:34;;;;;;;4.60;3.97;;;;;;;16.35;95.07;100146.72;3610565;39;20293;-68
2023/08/06 06:42:00;;;;;;;5.07;3.55;;;;;;;16.88;95.96;100262.81;3616101;39;20073;-68
2023/08/06 06:44:25;;;;;;;2.55;1.90;;;;;;;16.75;93.24;100267.72;3619858;39;20046;-67
2023/08/06 06:46:51;;;;;;;1.20;1.20;;;;;;;16.49;91.83;100264.75;3614683;39;20051;-67
2023/08/06 06:49:17;;;;;;;0.90;0.90;;;;;;;16.39;91.44;100281.03;3612611;39;20466;-67
2023/08/06 06:51:42;;;;;;;0.80;0.80;;;;;;;16.27;92.05;100284.94;3617781;39;20062;-66
2023/08/06 06:54:08;;;;;;;0.95;0.90;;;;;;;16.06;90.91;100278.81;3614721;39;20724;-67
2023/08/06 06:56:33;;;;;;;0.80;0.80;;;;;;;15.93;91.94;100285.38;3616272;39;20089;-67
2023/08/06 06:58:59;;;;;;;1.85;1.00;;;;;;;15.82;93.02;100287.38;3615118;39;20085;-68
2023/08/06 07:01:24;;;;;;;1.38;1.27;;;;;;;15.69;93.06;100293.06;3617810;39;20166;-67
2023/08/06 07:03:50;;;;;;;1.60;1.50;;;;;;;15.60;94.29;100291.16;3616335;39;20123;-66
2023/08/06 07:06:18;;;;;;;1.98;1.88;;;;;;;15.45;94.25;100285.31;3617110;39;20067;-66
2023/08/06 07:08:44;;;;;;;1.70;1.55;;;;;;;15.29;94.88;100278.56;3619744;39;20038;-67
2023/08/06 07:11:10;;;;;;;2.13;1.95;;;;;;;15.39;94.98;100307.53;3613085;39;20061;-67
2023/08/06 07:13:36;;;;;;;2.35;1.60;;;;;;;15.36;96.22;100311.38;3613829;39;20066;-67
2023/08/06 07:16:02;;;;;;;2.22;2.03;;;;;;;15.27;97.05;100312.19;3612328;39;20098;-66
2023/08/06 07:18:28;;;;;;;2.40;2.17;;;;;;;15.30;97.32;100322.75;3615562;39;20051;-66
2023/08/06 07:20:55;;;;;;;2.30;2.10;;;;;;;15.28;97.47;100320.16;3605178;39;20043;-67
2023/08/06 07:23:24;;;;;;;1.90;1.80;;;;;;;15.20;97.46;100313.75;3617092;39;20112;-67
2023/08/06 07:25:50;;;;;;;2.60;2.40;;;;;;;15.23;98.10;100332.44;3615800;39;20090;-67
2023/08/06 07:28:16;;;;;;;3.20;2.90;;;;;;;15.21;98.04;100335.25;3616297;39;20061;-67
2023/08/06 07:30:45;;;;;;;3.30;3.00;;;;;;;14.85;98.42;100286.13;3604626;39;20054;-67
2023/08/06 07:33:11;;;;;;;3.35;2.70;;;;;;;14.78;98.16;100267.84;3614659;39;20047;-67
2023/08/06 07:35:38;;;;;;;3.85;3.47;;;;;;;15.21;98.29;100350.66;3614671;39;20055;-66
2023/08/06 07:38:04;;;;;;;3.15;2.92;;;;;;;15.12;98.09;100348.75;3611809;39;20053;-67
2023/08/06 07:40:29;;;;;;;4.13;3.72;;;;;;;15.18;99.39;100357.19;3611821;39;20340;-66
2023/08/06 07:42:55;;;;;;;3.88;3.40;;;;;;;15.11;98.48;100352.47;3615858;39;20058;-66
2023/08/06 07:45:21;;;;;;;4.38;3.78;;;;;;;15.17;98.27;100360.91;3615967;39;20063;-67
2023/08/06 07:47:47;;;;;;;3.63;3.33;;;;;;;15.15;98.76;100359.31;3614422;39;20054;-67
2023/08/06 07:50:13;;;;;;;4.32;3.72;;;;;;;15.18;99.52;100367.16;3611106;39;20083;-68
2023/08/06 07:52:39;;;;;;;4.70;3.60;;;;;;;15.17;99.38;100365.47;3617393;39;20091;-69
2023/08/06 07:55:06;;;;;;;4.20;3.80;;;;;;;15.23;99.32;100371.19;3614199;39;20101;-67
2023/08/06 07:57:33;;;;;;;4.05;3.75;;;;;;;15.24;99.23;100369.34;3616703;39;20124;-67
2023/08/06 07:59:59;;;;;;;5.95;4.05;;;;;;;15.28;100.00;100374.31;3614227;39;20146;-67
2023/08/06 08:02:25;;;;;;;5.43;4.13;;;;;;;15.32;99.91;100374.94;3619480;39;20058;-67
2023/08/06 08:04:50;;;;;;;5.05;4.22;;;;;;;15.32;100.00;100372.22;3615099;39;20431;-69
2023/08/06 08:07:16;;;;;;;5.93;4.10;;;;;;;15.39;100.00;100373.41;3617584;39;20055;-67
2023/08/06 08:09:41;;;;;;;6.57;4.55;;;;;;;15.45;100.00;100372.84;3612376;39;20409;-68
2023/08/06 08:12:07;;;;;;;5.97;3.92;;;;;;;15.48;100.00;100369.88;3616560;39;20085;-68
2023/08/06 08:14:35;;;;;;;7.50;4.35;;;;;;;15.53;100.00;100372.16;3620590;39;20054;-67
2023/08/06 08:17:03;;;;;;;5.07;4.22;;;;;;;15.55;100.00;100376.44;3617277;39;20130;-67
2023/08/06 08:19:29;;;;;;;5.43;3.65;;;;;;;15.55;100.00;100376.44;3619930;39;20086;-69
2023/08/06 08:21:55;;;;;;;6.35;4.15;;;;;;;15.35;100.00;100347.59;3614967;39;20131;-69
2023/08/06 08:24:23;;;;;;;6.40;4.55;;;;;;;15.43;100.00;100369.41;3617293;39;20062;-69
2023/08/06 08:26:53;;;;;;;6.22;3.88;;;;;;;15.52;100.00;100387.53;3608943;39;20046;-69
2023/08/06 08:29:22;;;;;;;5.03;3.63;;;;;;;15.52;100.00;100386.69;3618210;39;20114;-67
2023/08/06 08:31:50;;;;;;;4.63;3.38;;;;;;;15.41;100.00;100379.50;3619690;39;20095;-67
2023/08/06 08:34:17;;;;;;;5.53;3.28;;;;;;;15.42;100.00;100385.81;3619367;39;20456;-66
2023/08/06 08:36:43;;;;;;;6.63;3.00;;;;;;;15.45;100.00;100397.22;3619031;39;20043;-68
2023/08/06 08:39:09;;;;;;;4.43;2.85;;;;;;;15.43;100.00;100401.91;3617773;39;20061;-68
2023/08/06 08:41:37;;;;;;;5.10;2.70;;;;;;;15.40;100.00;100404.03;3617046;39;20057;-67
2023/08/06 08:44:10;;;;;;;5.72;2.83;;;;;;;15.35;99.97;100400.88;3617757;39;20429;-67
2023/08/06 08:46:38;;;;;;;6.10;2.97;;;;;;;15.37;100.00;100410.59;3619662;39;20116;-66
2023/08/06 08:49:04;;;;;;;5.72;3.00;;;;;;;15.23;99.80;100392.00;3607103;39;20315;-66
2023/08/06 08:51:31;;;;;;;6.15;3.17;;;;;;;15.30;100.00;100410.25;3617910;39;20045;-67
2023/08/06 08:53:57;;;;;;;6.80;3.15;;;;;;;15.35;100.00;100412.59;3606581;39;20062;-67
2023/08/06 08:56:24;;;;;;;4.38;3.20;;;;;;;15.36;100.00;100422.41;3617450;39;20075;-67
2023/08/06 08:58:53;;;;;;;4.65;3.20;;;;;;;15.36;100.00;100410.72;3617111;39;20448;-66
2023/08/06 09:01:22;;;;;;;6.28;3.05;;;;;;;15.38;99.78;100417.72;3617215;39;20057;-66
2023/08/06 09:03:48;;;;;;;8.63;3.78;;;;;;;15.41;99.10;100430.97;3616945;39;20051;-66
2023/08/06 09:06:17;;;;;;;7.60;3.33;;;;;;;15.45;99.28;100434.28;3617376;39;20055;-66
2023/08/06 09:08:56;;;;;;;5.47;3.50;;;;;;;15.41;99.13;100428.25;3614431;39;20050;-67
2023/08/06 09:11:23;;;;;;;8.57;3.53;;;;;;;15.46;98.93;100441.41;3614241;39;20093;-66
2023/08/06 09:13:49;;;;;;;5.15;3.40;;;;;;;15.46;98.92;100444.97;3616985;39;20066;-66
2023/08/06 09:16:15;;;;;;;8.38;3.92;;;;;;;14.95;98.53;100355.66;3613699;39;20051;-66
2023/08/06 09:18:41;;;;;;;4.70;3.33;;;;;;;15.51;98.92;100450.84;3618417;39;20050;-67
2023/08/06 09:21:17;;;;;;;8.15;3.10;;;;;;;15.51;98.06;100458.13;3618580;39;20113;-66
2023/08/06 09:23:43;;;;;;;5.20;3.50;;;;;;;15.53;98.32;100459.69;3620149;39;20119;-66
2023/08/06 09:26:13;;;;;;;5.93;3.60;;;;;;;15.59;98.56;100468.28;3613244;39;20117;-66
2023/08/06 09:28:41;;;;;;;7.28;4.10;;;;;;;15.61;98.64;100477.13;3619018;39;20171;-67
2023/08/06 09:31:09;;;;;;;6.70;3.65;;;;;;;15.62;99.11;100473.44;3612099;39;20069;-66
2023/08/06 09:33:37;;;;;;;5.00;3.20;;;;;;;15.61;98.68;100477.13;3618053;39;20070;-66
2023/08/06 09:36:12;;;;;;;6.40;3.42;;;;;;;15.48;98.31;100451.13;3617734;39;20083;-66
2023/08/06 09:38:40;;;;;;;4.53;3.45;;;;;;;15.63;97.67;100484.13;3615034;39;20050;-67
2023/08/06 09:41:06;;;;;;;7.68;4.20;;;;;;;15.65;98.98;100484.00;3614994;39;20155;-66
2023/08/06 09:43:41;;;;;;;5.57;3.80;;;;;;;15.68;98.85;100491.88;3616697;39;20042;-67
2023/08/06 09:46:16;;;;;;;6.40;3.58;;;;;;;15.68;98.50;100495.44;3616793;39;20071;-67
2023/08/06 09:48:47;;;;;;;9.30;3.92;;;;;;;15.68;98.82;100497.31;3620291;39;20047;-67
2023/08/06 09:51:15;;;;;;;8.38;4.03;;;;;;;15.70;98.52;100490.75;3620268;39;20050;-66
2023/08/06 09:53:42;;;;;;;5.93;3.80;;;;;;;15.58;98.60;100474.69;3616712;39;20351;-66
2023/08/06 09:56:13;;;;;;;8.38;3.90;;;;;;;15.74;97.83;100499.47;3613335;39;20109;-67
2023/08/06 09:58:40;;;;;;;6.93;3.67;;;;;;;15.75;99.02;100498.47;3614593;39;20135;-67
2023/08/06 10:01:06;;;;;;;5.00;3.65;;;;;;;15.72;98.82;100496.88;3614011;39;20055;-67
2023/08/06 10:03:34;;;;;;;6.32;3.70;;;;;;;15.80;98.58;100508.91;3617703;39;20102;-67
2023/08/06 10:06:02;;;;;;;9.73;4.43;;;;;;;15.58;98.45;100470.13;3616967;39;20086;-68
2023/08/06 10:08:28;;;;;;;6.40;3.88;;;;;;;15.85;98.96;100506.63;3615240;39;20399;-68
2023/08/06 10:10:54;;;;;;;8.25;4.38;;;;;;;15.77;98.79;100489.22;3614605;39;20047;-67
2023/08/06 10:13:22;;;;;;;6.07;3.65;;;;;;;15.88;97.89;100518.06;3615314;39;20078;-67
2023/08/06 10:15:51;;;;;;;4.70;3.08;;;;;;;15.57;96.86;100476.53;3614828;39;20095;-67
2023/08/06 10:18:22;;;;;;;6.75;3.05;;;;;;;15.81;96.59;100519.59;3615145;39;20170;-67
2023/08/06 10:20:48;;;;;;;5.93;2.95;;;;;;;15.78;95.92;100511.75;3617943;39;20054;-67
2023/08/06 10:23:14;;;;;;;4.72;2.53;;;;;;;15.77;95.92;100520.88;3612747;39;20171;-67
2023/08/06 10:25:43;;;;;;;5.28;3.00;;;;;;;15.75;95.87;100518.28;3616170;39;20044;-68
2023/08/06 10:28:13;;;;;;;5.40;3.15;;;;;;;15.78;96.55;100520.72;3615892;39;20055;-68
2023/08/06 10:30:46;;;;;;;5.72;3.20;;;;;;;15.33;96.38;100447.06;3613498;39;20123;-68
2023/08/06 10:33:12;;;;;;;5.82;3.03;;;;;;;15.84;96.85;100521.19;3615575;39;20378;-67
2023/08/06 10:35:49;;;;;;;6.78;3.38;;;;;;;15.82;96.53;100518.59;3615189;39;20047;-68
2023/08/06 10:38:17;;;;;;;5.07;2.92;;;;;;;15.87;96.71;100521.78;3606274;39;20309;-68
2023/08/06 10:40:53;;;;;;;6.88;3.53;;;;;;;15.87;97.14;100521.78;3616793;39;20050;-68
2023/08/06 10:43:38;;;;;;;5.63;3.58;;;;;;;15.89;96.93;100530.63;3616539;39;20408;-68
2023/08/06 10:46:11;;;;;;;6.20;3.55;;;;;;;15.94;97.10;100528.34;3608711;39;20054;-68
2023/08/06 10:48:40;;;;;;;4.85;3.35;;;;;;;15.85;97.56;100502.06;3615354;39;20050;-67
2023/08/06 10:51:13;;;;;;;7.45;4.15;;;;;;;16.01;97.84;100534.94;3613076;39;20060;-68
2023/08/06 10:53:46;;;;;;;8.50;4.32;;;;;;;16.06;98.28;100531.84;3604535;39;20075;-68
2023/08/06 10:56:16;;;;;;;;;;;;;;;16.10;97.87;100537.84;3614938;39;20051;-68
2023/08/06 10:58:43;;;;;;;5.57;3.60;;;;;;;16.12;97.79;100530.44;3603351;39;19934;-68
2023/08/06 11:01:10;;;;;;;4.60;3.83;;;;;;;16.17;97.85;100523.56;3604176;39;20300;-68
2023/08/06 11:03:38;;;;;;;6.28;4.20;;;;;;;16.27;97.22;100544.44;3615992;39;20055;-68
2023/08/06 11:06:05;;;;;;;5.65;4.13;;;;;;;16.31;97.52;100541.34;3616048;39;20067;-68
2023/08/06 11:08:36;;;;;;;7.93;3.90;;;;;;;16.34;97.68;100541.06;3612699;39;20061;-68
2023/08/06 11:11:14;;;;;;;7.97;4.15;;;;;;;16.36;96.10;100541.75;3614753;39;20062;-68
2023/08/06 11:13:47;;;;;;;6.32;4.55;;;;;;;16.37;95.66;100551.63;3613185;39;20058;-68
2023/08/06 11:16:25;;;;;;;6.75;3.88;;;;;;;16.36;95.51;100549.91;3615157;39;20074;-69
2023/08/06 11:18:52;;;;;;;5.60;3.80;;;;;;;16.36;96.30;100533.63;3611132;39;20100;-69
2023/08/06 11:21:24;;;;;;;5.93;4.28;;;;;;;16.30;96.25;100520.63;3613365;39;20066;-69